Austin Bergstrom International Airport
KAUS : now visible

Airfield :











YOU CAN JOIN US ON...

 
LOGIN :

Register | Disclaimer

   EN    FR    IT 

 









Legend :    VFR   Marginal VFR   IFR   Intensive IFR   Very Intensive IFR
Visi :
Ceiling :
>= 8 km
>= 3000ft
5 to 8 km
1000 to 3000 ft
1500m to 5 km
500 to 1000 ft
800 to 1500m
200 to 500 ft
< 800m
< 200 ft
Symbols :   Thunderstorms  Fog  Heavy snow  Heavy precipitations  Wind > 20 kt






- Airport Elevation : 542 ft
- IATA code : AUS


KAUS - Austin Bergstrom International

CURRENT METAR :
  • 292353Z 12003KT 10SM FEW070 FEW090 SCT200 31/22 A2994 RMK AO2 SLP128 T03110222 10333 20300 58009

EXPIRED METARs :
  • 292253Z 08005KT 10SM FEW047 SCT080 SCT200 31/22 A2995 RMK AO2 SLP132 T03060217
  • 292153Z 07006KT 10SM SCT050 OVC080 31/21 A2996 RMK AO2 CIG 060 RWY17R SLP134 T03110211
  • 292053Z 14006KT 10SM SCT060 SCT200 32/21 A2997 RMK AO2 SLP137 T03170211 56014
  • 291953Z 14005KT 10SM SCT050 SCT200 32/21 A2998 RMK AO2 SLP141 T03170206

TAF KAUS
Valid from the 30 at 00:00 until the 31 at 06:00 UTC


292320Z 3000/3106 09008KT P6SM SCT050 SCT250
FM300800 16005KT P6SM BKN012
FM301700 15011KT P6SM SCT050
FM310100 12009KT P6SM BKN050
KZHU FIR / North America



MET'MAP, your aeronautical weather chart ! - Copyright ORBIFLY December 2007 - Disclaimer

ORBIFLY MET'MAP TEAM :

Programming & Development : Alexandra Zaïnal
Original concept : Baudouin d'Aumeries
Technical & hardware support : Manuel Goepfert
Assistance : Marc-Olivier Méhu




SOURCES & CREDITS :

   NOAA       Earth
Advisory